Verkhoyansk, Russia
Current Conditions -  °F | °C
As of 9:30 PM on Thursday 27 Nov 2014 (Local Time) from UEEE Reporting Station
Light Snow Light Snow  
Wind Chill: -31°   Ceiling: 10000
Heat Index: -18°   Visibility: 6mi
Dew Point: -26°   Wind: 4mph
Humidity: 70%   Direction: 270°W
Pressure: 30"   Gusts: NA
Location:  67.54°N, 133.39°E
Report Text: UEEE 271130Z 27002MPS 9999 -SN OVC100 M28/M32 Q1016 NOSIG RMKQFE753 23490150
Loading
Personal Weather Stations






























Interactive Weather Map New forecast layout! Learn more

10-Day Weather Forecast

Advertisements
Track Severe Weather on mobile